createdAt,value
2022-11-25T00:00:25.233Z,100850.88
2022-11-25T00:02:53.032Z,100846.50
2022-11-25T00:05:20.757Z,100849.00
2022-11-25T00:07:48.613Z,100848.78
2022-11-25T00:10:16.344Z,100834.69
2022-11-25T00:12:44.041Z,100845.03
2022-11-25T00:15:12.024Z,100839.53
2022-11-25T00:17:41.075Z,100834.16
2022-11-25T00:20:09.608Z,100834.91
2022-11-25T00:22:37.260Z,100831.22
2022-11-25T00:25:05.393Z,100830.25
2022-11-25T00:27:33.019Z,100832.06
2022-11-25T00:30:00.721Z,100834.47
2022-11-25T00:32:28.421Z,100827.63
2022-11-25T00:34:57.504Z,100827.31
2022-11-25T00:37:25.243Z,100830.56
2022-11-25T00:39:53.022Z,100836.56
2022-11-25T00:42:37.989Z,100830.25
2022-11-25T00:45:06.865Z,100830.16
2022-11-25T00:47:34.483Z,100825.72
2022-11-25T00:50:03.735Z,100819.09
2022-11-25T00:52:36.780Z,100816.16
2022-11-25T00:55:04.896Z,100825.59
2022-11-25T00:57:32.665Z,100825.38
2022-11-25T01:00:00.337Z,100825.38
2022-11-25T01:02:28.056Z,100829.72
2022-11-25T01:04:55.697Z,100835.00
2022-11-25T01:07:25.092Z,100831.28
2022-11-25T01:09:52.821Z,100833.19
2022-11-25T01:12:20.515Z,100830.22
2022-11-25T01:14:48.128Z,100848.66
2022-11-25T01:17:15.941Z,100846.00
2022-11-25T01:19:43.639Z,100844.13
2022-11-25T01:22:11.347Z,100840.44
2022-11-25T01:24:40.439Z,100838.88
2022-11-25T01:27:08.120Z,100839.59
2022-11-25T01:29:35.836Z,100830.03
2022-11-25T01:32:03.737Z,100838.88
2022-11-25T01:34:32.589Z,100837.81
2022-11-25T01:37:00.453Z,100831.69
2022-11-25T01:39:32.477Z,100830.84
2022-11-25T01:42:02.625Z,100828.34
2022-11-25T01:44:31.266Z,100824.75
2022-11-25T01:47:04.047Z,100825.72
2022-11-25T01:49:36.438Z,100820.31
2022-11-25T01:52:08.551Z,100811.59
2022-11-25T01:54:39.314Z,100822.13
2022-11-25T01:57:12.977Z,100819.69
2022-11-25T01:59:45.097Z,100816.31
2022-11-25T02:02:13.125Z,100817.16
2022-11-25T02:04:41.446Z,100824.09
2022-11-25T02:07:11.267Z,100819.69
2022-11-25T02:09:40.575Z,100818.72
2022-11-25T02:12:10.176Z,100816.94
2022-11-25T02:14:38.084Z,100807.28
2022-11-25T02:17:05.991Z,100819.50
2022-11-25T02:19:44.423Z,100804.41
2022-11-25T02:22:16.742Z,100808.72
2022-11-25T02:24:46.804Z,100806.22
2022-11-25T02:27:15.822Z,100797.25
2022-11-25T02:29:44.136Z,100814.84
2022-11-25T02:32:12.526Z,100822.00
2022-11-25T02:34:47.737Z,100820.31
2022-11-25T02:37:15.920Z,100808.97
2022-11-25T02:39:43.620Z,100814.22
2022-11-25T02:42:11.873Z,100810.50
2022-11-25T02:44:40.965Z,100820.09
2022-11-25T02:47:08.611Z,100815.66
2022-11-25T02:49:36.344Z,100801.53
2022-11-25T02:52:04.035Z,100807.88
2022-11-25T02:54:31.712Z,100797.25
2022-11-25T02:56:59.363Z,100805.97
2022-11-25T02:59:27.112Z,100808.50
2022-11-25T03:01:56.265Z,100801.53
2022-11-25T03:04:24.045Z,100807.56
2022-11-25T03:06:51.706Z,100804.09
2022-11-25T03:09:19.388Z,100797.03
2022-11-25T03:12:19.139Z,100803.88
2022-11-25T03:14:46.800Z,100799.66
2022-11-25T03:17:15.992Z,100813.56
2022-11-25T03:19:43.870Z,100809.97
2022-11-25T03:22:11.617Z,100809.13
2022-11-25T03:24:39.311Z,100796.28
2022-11-25T03:27:06.975Z,100806.63
2022-11-25T03:29:34.592Z,100810.94
2022-11-25T03:32:05.504Z,100809.84
2022-11-25T03:34:38.501Z,100809.13
2022-11-25T03:37:06.285Z,100811.75
2022-11-25T03:39:34.175Z,100818.59
2022-11-25T03:42:01.962Z,100809.13
2022-11-25T03:44:29.656Z,100815.25
2022-11-25T03:46:57.412Z,100823.66
2022-11-25T03:49:25.233Z,100831.44
2022-11-25T03:51:54.402Z,100828.69
2022-11-25T03:54:22.118Z,100826.91
2022-11-25T03:56:49.816Z,100826.91
2022-11-25T03:59:17.473Z,100825.22
2022-11-25T04:01:45.293Z,100830.38
2022-11-25T04:04:13.016Z,100833.00
2022-11-25T04:06:40.605Z,100839.00
2022-11-25T04:09:11.924Z,100832.06
2022-11-25T04:11:56.918Z,100839.97
2022-11-25T04:14:24.810Z,100842.59
2022-11-25T04:16:52.528Z,100845.97
2022-11-25T04:19:20.196Z,100847.53
2022-11-25T04:21:52.165Z,100843.13
2022-11-25T04:24:21.698Z,100842.16
2022-11-25T04:26:49.393Z,100853.41
2022-11-25T04:29:17.139Z,100856.88
2022-11-25T04:31:44.835Z,100853.34
2022-11-25T04:34:12.532Z,100843.84
2022-11-25T04:36:40.305Z,100852.38
2022-11-25T04:39:08.236Z,100855.84
2022-11-25T04:41:37.320Z,100855.63
2022-11-25T04:44:05.297Z,100854.91
2022-11-25T04:46:36.134Z,100845.19
2022-11-25T04:49:03.833Z,100858.25
2022-11-25T04:51:31.710Z,100866.16
2022-11-25T04:53:59.605Z,100845.09
2022-11-25T04:56:27.193Z,100836.47
2022-11-25T04:59:13.825Z,100854.47
2022-11-25T05:01:41.592Z,100845.72
2022-11-25T05:04:09.432Z,100860.78
2022-11-25T05:06:37.083Z,100871.22
2022-11-25T05:09:05.494Z,100865.31
2022-11-25T05:11:33.171Z,100874.91
2022-11-25T05:14:02.191Z,100861.72
2022-11-25T05:16:30.046Z,100868.78
2022-11-25T05:18:57.802Z,100873.34
2022-11-25T05:21:25.419Z,100886.41
2022-11-25T05:23:55.829Z,100888.06
2022-11-25T05:26:23.890Z,100891.66
2022-11-25T05:28:51.670Z,100897.56
2022-11-25T05:31:20.827Z,100903.69
2022-11-25T05:33:48.568Z,100892.31
2022-11-25T05:36:16.461Z,100893.97
2022-11-25T05:38:44.172Z,100896.50
2022-11-25T05:41:12.248Z,100893.75
2022-11-25T05:43:39.980Z,100900.69
2022-11-25T05:46:08.100Z,100914.63
2022-11-25T05:48:37.378Z,100912.06
2022-11-25T05:51:05.763Z,100912.91
2022-11-25T05:53:33.820Z,100919.97
2022-11-25T05:56:03.208Z,100922.63
2022-11-25T05:58:31.642Z,100920.81
2022-11-25T06:00:59.297Z,100926.84
2022-11-25T06:03:27.968Z,100931.28
2022-11-25T06:05:58.023Z,100935.72
2022-11-25T06:08:26.035Z,100937.38
2022-11-25T06:10:53.846Z,100937.38
2022-11-25T06:13:21.941Z,100942.66
2022-11-25T06:15:49.774Z,100934.75
2022-11-25T06:18:18.511Z,100941.91
2022-11-25T06:20:46.229Z,100940.97
2022-11-25T06:23:15.248Z,100933.81
2022-11-25T06:25:42.940Z,100936.63
2022-11-25T06:28:13.102Z,100927.81
2022-11-25T06:30:41.300Z,100943.63
2022-11-25T06:33:08.927Z,100941.28
2022-11-25T06:35:37.225Z,100955.31
2022-11-25T06:38:04.996Z,100959.97
2022-11-25T06:40:34.088Z,100958.25
2022-11-25T06:43:01.716Z,100972.19
2022-11-25T06:45:29.555Z,100979.34
2022-11-25T06:47:58.175Z,100982.06
2022-11-25T06:50:26.115Z,100986.41
2022-11-25T06:52:53.720Z,100989.03
2022-11-25T06:55:21.809Z,100997.69
2022-11-25T06:57:53.275Z,101001.06
2022-11-25T07:00:23.517Z,100995.91
2022-11-25T07:02:51.311Z,100993.16
2022-11-25T07:05:18.964Z,100995.06
2022-11-25T07:07:46.675Z,100995.06
2022-11-25T07:10:14.405Z,101008.13
2022-11-25T07:12:42.113Z,101012.44
2022-11-25T07:15:12.427Z,101017.59
2022-11-25T07:17:40.161Z,101021.72
2022-11-25T07:20:08.990Z,101022.66
2022-11-25T07:22:36.581Z,101020.88
2022-11-25T07:25:04.426Z,101013.88
2022-11-25T07:27:32.066Z,101020.03
2022-11-25T07:30:41.211Z,101022.56
2022-11-25T07:32:48.986Z,101029.69
2022-11-25T07:35:16.919Z,101015.78
2022-11-25T07:37:44.612Z,101031.31
2022-11-25T07:40:13.631Z,101037.53
2022-11-25T07:42:41.405Z,101044.25
2022-11-25T07:45:10.051Z,101046.38
2022-11-25T07:47:38.017Z,101039.31
2022-11-25T07:50:08.816Z,101047.22
2022-11-25T07:52:39.015Z,101060.47
2022-11-25T07:55:07.298Z,101061.25
2022-11-25T07:57:35.069Z,101060.47
2022-11-25T08:00:03.018Z,101065.75
2022-11-25T08:02:30.694Z,101069.16
2022-11-25T08:04:58.424Z,101068.31
2022-11-25T08:07:31.902Z,101075.38
2022-11-25T08:10:02.614Z,101077.25
2022-11-25T08:12:32.454Z,101081.66
2022-11-25T08:15:00.046Z,101094.00
2022-11-25T08:17:27.723Z,101086.84
2022-11-25T08:19:55.454Z,101090.22
2022-11-25T08:22:23.130Z,101095.50
2022-11-25T08:24:52.317Z,101094.75
2022-11-25T08:27:20.179Z,101097.19
2022-11-25T08:29:47.910Z,101099.09
2022-11-25T08:32:15.589Z,101098.03
2022-11-25T08:34:43.813Z,101098.88
2022-11-25T08:37:11.480Z,101105.81
2022-11-25T08:39:54.494Z,101100.66
2022-11-25T08:42:23.801Z,101109.41
2022-11-25T08:44:53.880Z,101112.66
2022-11-25T08:47:21.554Z,101110.03
2022-11-25T08:49:51.726Z,101115.00
2022-11-25T08:52:19.657Z,101103.91
2022-11-25T08:54:47.395Z,101115.53
2022-11-25T08:57:15.293Z,101102.66
2022-11-25T08:59:44.356Z,101130.91
2022-11-25T09:02:14.281Z,101123.75
2022-11-25T09:04:42.119Z,101134.19
2022-11-25T09:07:09.939Z,101132.16
2022-11-25T09:09:37.992Z,101136.59
2022-11-25T09:12:06.383Z,101134.91
2022-11-25T09:14:34.047Z,101143.41
2022-11-25T09:17:03.899Z,101139.81
2022-11-25T09:19:34.492Z,101147.41
2022-11-25T09:22:02.611Z,101151.38
2022-11-25T09:24:30.477Z,101160.38
2022-11-25T09:26:58.278Z,101165.41
2022-11-25T09:29:27.784Z,101160.78
2022-11-25T09:31:55.568Z,101174.59
2022-11-25T09:34:24.745Z,101177.22
2022-11-25T09:36:52.830Z,101168.16
2022-11-25T09:39:20.648Z,101173.34
2022-11-25T09:42:14.748Z,101185.44
2022-11-25T09:45:19.513Z,101198.44
2022-11-25T09:47:57.184Z,101195.81
2022-11-25T09:50:32.212Z,101195.47
2022-11-25T09:53:06.489Z,101190.84
2022-11-25T09:58:06.238Z,101206.25
2022-11-25T10:00:39.790Z,101198.03
2022-11-25T10:03:14.035Z,101212.44
2022-11-25T10:05:44.414Z,101220.38
2022-11-25T10:08:14.183Z,101230.91
2022-11-25T10:10:44.653Z,101226.28
2022-11-25T10:13:18.547Z,101226.28
2022-11-25T10:15:48.252Z,101232.28
2022-11-25T10:18:20.378Z,101230.31
2022-11-25T10:20:50.745Z,101227.84
2022-11-25T10:23:27.874Z,101222.25
2022-11-25T10:25:58.800Z,101226.34
2022-11-25T10:28:31.947Z,101221.59
2022-11-25T10:31:02.758Z,101214.53
2022-11-25T10:33:34.050Z,101228.97
2022-11-25T10:36:08.017Z,101226.75
2022-11-25T10:38:39.655Z,101222.72
2022-11-25T10:41:07.593Z,101240.13
2022-11-25T10:43:41.230Z,101228.00
2022-11-25T10:46:13.155Z,101220.16
2022-11-25T10:48:52.638Z,101221.75
2022-11-25T10:51:33.357Z,101251.84
2022-11-25T10:54:14.663Z,101247.28
2022-11-25T10:56:48.284Z,101262.16
2022-11-25T10:59:25.155Z,101249.19
2022-11-25T11:01:54.210Z,101254.72
2022-11-25T11:04:22.080Z,101259.03
2022-11-25T11:06:51.576Z,101264.31
2022-11-25T11:09:34.263Z,101270.31
2022-11-25T11:12:15.551Z,101270.00
2022-11-25T11:14:44.629Z,101277.47
2022-11-25T11:17:36.699Z,101268.13
2022-11-25T11:20:20.100Z,101259.91
2022-11-25T11:22:51.040Z,101282.03
2022-11-25T11:25:28.566Z,101282.03
2022-11-25T11:27:56.731Z,101281.84
2022-11-25T11:30:27.332Z,101289.53
2022-11-25T11:33:02.081Z,101278.84
2022-11-25T11:35:47.973Z,101292.44
2022-11-25T11:38:27.775Z,101291.31
2022-11-25T11:40:58.980Z,101292.56
2022-11-25T11:43:49.948Z,101286.19
2022-11-25T11:46:31.342Z,101291.69
2022-11-25T11:49:07.008Z,101300.66
2022-11-25T11:51:39.033Z,101299.34
2022-11-25T11:54:09.792Z,101302.59
2022-11-25T11:56:40.264Z,101303.13
2022-11-25T11:59:32.220Z,101303.44
2022-11-25T12:02:15.219Z,101305.13
2022-11-25T12:04:45.941Z,101310.09
2022-11-25T12:07:19.356Z,101320.31
2022-11-25T12:09:51.222Z,101323.91
2022-11-25T12:12:20.334Z,101329.00
2022-11-25T12:14:50.925Z,101326.63
2022-11-25T12:17:23.200Z,101329.47
2022-11-25T12:19:56.064Z,101338.38
2022-11-25T12:22:26.939Z,101346.53
2022-11-25T12:25:02.235Z,101348.47
2022-11-25T12:27:33.020Z,101342.78
2022-11-25T12:30:04.655Z,101343.84
2022-11-25T12:32:53.362Z,101348.91
2022-11-25T12:35:31.896Z,101356.84
2022-11-25T12:38:05.252Z,101368.16
2022-11-25T12:40:36.828Z,101369.63
2022-11-25T12:43:12.370Z,101367.69
2022-11-25T12:45:41.057Z,101366.03
2022-11-25T12:48:11.724Z,101365.78
2022-11-25T12:50:56.465Z,101370.22
2022-11-25T12:53:29.166Z,101390.94
2022-11-25T12:55:57.701Z,101377.94
2022-11-25T12:58:36.509Z,101382.63
2022-11-25T13:01:22.349Z,101381.78
2022-11-25T13:04:16.783Z,101387.19
2022-11-25T13:07:23.773Z,101388.22
2022-11-25T13:10:20.272Z,101393.75
2022-11-25T13:13:04.047Z,101400.63
2022-11-25T13:15:34.424Z,101400.13
2022-11-25T13:18:05.461Z,101413.84
2022-11-25T13:20:46.919Z,101408.53
2022-11-25T13:23:31.457Z,101409.63
2022-11-25T13:26:37.631Z,101420.53
2022-11-25T13:30:00.077Z,101414.50
2022-11-25T13:32:40.224Z,101421.72
2022-11-25T13:35:52.643Z,101421.72
2022-11-25T13:38:59.349Z,101440.22
2022-11-25T13:41:43.633Z,101436.88
2022-11-25T13:44:23.631Z,101442.25
2022-11-25T13:46:52.802Z,101446.91
2022-11-25T13:49:29.309Z,101446.91
2022-11-25T13:52:00.793Z,101445.13
2022-11-25T13:54:34.273Z,101451.38
2022-11-25T13:57:26.220Z,101446.69
2022-11-25T13:59:56.706Z,101443.31
2022-11-25T14:02:31.993Z,101453.22
2022-11-25T14:05:23.310Z,101450.47
2022-11-25T14:08:00.468Z,101462.13
2022-11-25T14:10:44.968Z,101466.56
2022-11-25T14:13:27.596Z,101468.38
2022-11-25T14:16:07.303Z,101477.47
2022-11-25T14:19:28.008Z,101482.03
2022-11-25T14:21:53.293Z,101490.91
2022-11-25T14:24:31.040Z,101485.84
2022-11-25T14:27:00.310Z,101479.72
2022-11-25T14:29:31.763Z,101491.88
2022-11-25T14:32:03.045Z,101505.09
2022-11-25T14:34:34.771Z,101495.34
2022-11-25T14:37:07.605Z,101496.19
2022-11-25T14:39:40.468Z,101499.56
2022-11-25T14:42:09.646Z,101507.63
2022-11-25T14:44:41.980Z,101502.44
2022-11-25T14:47:09.567Z,101502.56
2022-11-25T14:49:59.552Z,101499.69
2022-11-25T14:52:36.973Z,101518.00
2022-11-25T14:55:08.935Z,101513.13
2022-11-25T14:57:38.483Z,101517.47
2022-11-25T15:00:08.582Z,101523.09
2022-11-25T15:02:41.040Z,101527.72
2022-11-25T15:05:18.535Z,101528.78
2022-11-25T15:07:58.039Z,101538.69
2022-11-25T15:10:42.581Z,101545.66
2022-11-25T15:13:15.430Z,101559.94
2022-11-25T15:15:46.570Z,101563.66
2022-11-25T15:18:18.792Z,101565.56
2022-11-25T15:20:48.852Z,101571.78
2022-11-25T15:23:20.845Z,101572.00
2022-11-25T15:25:54.839Z,101575.72
2022-11-25T15:28:22.527Z,101579.59
2022-11-25T15:30:58.236Z,101574.00
2022-11-25T15:33:27.145Z,101592.28
2022-11-25T15:35:55.021Z,101592.50
2022-11-25T15:38:38.009Z,101591.00
2022-11-25T15:41:07.887Z,101594.59
2022-11-25T15:43:37.409Z,101596.59
2022-11-25T15:46:06.410Z,101599.34
2022-11-25T15:48:38.124Z,101618.75
2022-11-25T15:51:07.941Z,101618.97
2022-11-25T15:53:37.619Z,101620.03
2022-11-25T15:56:08.387Z,101635.13
2022-11-25T15:58:36.458Z,101636.91
2022-11-25T16:01:05.522Z,101629.31
2022-11-25T16:03:35.205Z,101633.75
2022-11-25T16:06:03.523Z,101637.22
2022-11-25T16:08:36.113Z,101647.91
2022-11-25T16:11:18.391Z,101652.31
2022-11-25T16:13:46.791Z,101648.81
2022-11-25T16:16:18.263Z,101651.47
2022-11-25T16:19:06.420Z,101655.91
2022-11-25T16:21:43.476Z,101666.56
2022-11-25T16:24:29.785Z,101663.94
2022-11-25T16:27:01.207Z,101673.00
2022-11-25T16:29:32.669Z,101677.44
2022-11-25T16:32:00.939Z,101682.06
2022-11-25T16:34:30.449Z,101681.22
2022-11-25T16:36:58.245Z,101688.41
2022-11-25T16:39:26.064Z,101697.34
2022-11-25T16:42:02.508Z,101697.44
2022-11-25T16:44:30.510Z,101705.66
2022-11-25T16:46:58.583Z,101711.13
2022-11-25T16:49:26.562Z,101723.59
2022-11-25T16:51:54.339Z,101723.69
2022-11-25T16:54:23.212Z,101735.19
2022-11-25T16:56:52.132Z,101735.47
2022-11-25T16:59:29.685Z,101737.47
2022-11-25T17:01:57.816Z,101744.59
2022-11-25T17:04:25.630Z,101745.66
2022-11-25T17:07:24.326Z,101744.91
2022-11-25T17:09:41.475Z,101753.94
2022-11-25T17:12:15.625Z,101747.91
2022-11-25T17:14:45.535Z,101757.72
2022-11-25T17:17:18.595Z,101761.38
2022-11-25T17:19:48.955Z,101768.56
2022-11-25T17:22:19.064Z,101760.72
2022-11-25T17:24:46.806Z,101766.19
2022-11-25T17:27:18.952Z,101772.50
2022-11-25T17:29:48.433Z,101778.72
2022-11-25T17:34:55.121Z,101793.03
2022-11-25T17:37:24.157Z,101790.69
2022-11-25T17:39:52.637Z,101793.31
2022-11-25T17:42:24.192Z,101804.91
2022-11-25T17:44:54.259Z,101813.75
2022-11-25T17:47:22.170Z,101810.34
2022-11-25T17:49:50.319Z,101813.09
2022-11-25T17:52:19.358Z,101820.25
2022-11-25T17:54:47.080Z,101830.84
2022-11-25T17:57:17.190Z,101840.66
2022-11-25T17:59:44.990Z,101839.06
2022-11-25T18:02:18.306Z,101844.34
2022-11-25T18:04:45.969Z,101844.44
2022-11-25T18:07:13.685Z,101859.41
2022-11-25T18:09:44.322Z,101864.75
2022-11-25T18:12:16.782Z,101873.50
2022-11-25T18:14:44.931Z,101866.53
2022-11-25T18:17:16.632Z,101875.38
2022-11-25T18:19:45.766Z,101874.69
2022-11-25T18:22:18.324Z,101874.00
2022-11-25T18:24:47.928Z,101886.25
2022-11-25T18:27:21.900Z,101892.47
2022-11-25T18:29:49.729Z,101894.34
2022-11-25T18:32:17.431Z,101892.56
2022-11-25T18:34:45.266Z,101899.63
2022-11-25T18:37:13.169Z,101899.72
2022-11-25T18:39:41.001Z,101909.56
2022-11-25T18:42:19.457Z,101911.25
2022-11-25T18:44:47.830Z,101915.78
2022-11-25T18:47:15.480Z,101916.63
2022-11-25T18:49:43.159Z,101922.00
2022-11-25T18:52:10.895Z,101919.53
2022-11-25T18:54:38.907Z,101921.34
2022-11-25T18:57:06.671Z,101932.72
2022-11-25T18:59:37.278Z,101939.00
2022-11-25T19:02:09.957Z,101947.00
2022-11-25T19:04:37.817Z,101947.94
2022-11-25T19:07:06.838Z,101946.25
2022-11-25T19:09:34.649Z,101950.75
2022-11-25T19:12:02.809Z,101957.13
2022-11-25T19:14:32.273Z,101958.06
2022-11-25T19:17:03.889Z,101958.06
2022-11-25T19:19:31.756Z,101955.50
2022-11-25T19:22:01.412Z,101963.50
2022-11-25T19:24:29.676Z,101967.03
2022-11-25T19:26:58.328Z,101968.06
2022-11-25T19:29:31.775Z,101991.13
2022-11-25T19:32:01.939Z,101987.66
2022-11-25T19:34:37.004Z,101978.09
2022-11-25T19:37:04.915Z,101989.56
2022-11-25T19:39:35.191Z,101993.31
2022-11-25T19:42:02.837Z,101994.22
2022-11-25T19:44:30.497Z,102001.22
2022-11-25T19:49:47.427Z,102007.56
2022-11-25T19:52:16.927Z,102010.38
2022-11-25T19:54:44.572Z,102014.81
2022-11-25T19:57:17.048Z,102016.81
2022-11-25T19:59:45.282Z,102027.44
2022-11-25T20:02:16.101Z,102014.72
2022-11-25T20:04:45.228Z,102029.47
2022-11-25T20:07:16.265Z,102031.41
2022-11-25T20:09:44.019Z,102036.69
2022-11-25T20:12:18.700Z,102040.31
2022-11-25T20:14:46.367Z,102032.66
2022-11-25T20:17:20.252Z,102045.00
2022-11-25T20:19:48.023Z,102046.81
2022-11-25T20:22:17.516Z,102061.09
2022-11-25T20:24:45.514Z,102055.03
2022-11-25T20:27:13.799Z,102063.09
2022-11-25T20:29:41.366Z,102067.59
2022-11-25T20:32:27.901Z,102075.63
2022-11-25T20:34:55.634Z,102074.88
2022-11-25T20:37:25.057Z,102077.66
2022-11-25T20:39:54.018Z,102081.28
2022-11-25T20:42:22.284Z,102090.97
2022-11-25T20:44:53.341Z,102084.09
2022-11-25T20:47:26.374Z,102094.63
2022-11-25T20:49:54.208Z,102089.44
2022-11-25T20:52:26.824Z,102105.31
2022-11-25T20:54:54.533Z,102103.59
2022-11-25T20:57:22.163Z,102102.81
2022-11-25T20:59:49.832Z,102105.59
2022-11-25T21:02:17.599Z,102103.91
2022-11-25T21:04:45.279Z,102109.25
2022-11-25T21:07:15.333Z,102112.84
2022-11-25T21:09:44.844Z,102121.69
2022-11-25T21:12:18.870Z,102118.28
2022-11-25T21:14:47.395Z,102121.78
2022-11-25T21:17:15.047Z,102128.91
2022-11-25T21:19:42.648Z,102133.34
2022-11-25T21:22:11.599Z,102133.44
2022-11-25T21:24:41.637Z,102148.38
2022-11-25T21:27:15.102Z,102150.22
2022-11-25T21:29:43.413Z,102149.47
2022-11-25T21:32:21.072Z,102151.28
2022-11-25T21:34:48.824Z,102144.31
2022-11-25T21:37:16.661Z,102154.00
2022-11-25T21:39:44.400Z,102161.97
2022-11-25T21:42:18.483Z,102156.00
2022-11-25T21:45:21.244Z,102162.38
2022-11-25T21:47:48.911Z,102167.56
2022-11-25T21:50:19.048Z,102168.13
2022-11-25T21:52:46.745Z,102186.97
2022-11-25T21:55:15.389Z,102182.09
2022-11-25T21:57:43.642Z,102180.66
2022-11-25T22:00:21.335Z,102189.59
2022-11-25T22:02:50.583Z,102187.34
2022-11-25T22:05:19.502Z,102185.00
2022-11-25T22:07:47.429Z,102198.22
2022-11-25T22:10:17.114Z,102195.69
2022-11-25T22:12:46.933Z,102208.94
2022-11-25T22:15:17.698Z,102211.75
2022-11-25T22:17:45.710Z,102208.41
2022-11-25T22:20:26.335Z,102211.06
2022-11-25T22:22:54.207Z,102208.72
2022-11-25T22:25:23.047Z,102214.00
2022-11-25T22:27:51.182Z,102217.59
2022-11-25T22:30:20.730Z,102224.69
2022-11-25T22:32:50.831Z,102230.06
2022-11-25T22:35:21.062Z,102224.94
2022-11-25T22:37:54.916Z,102227.63
2022-11-25T22:40:23.292Z,102236.44
2022-11-25T22:42:52.493Z,102244.31
2022-11-25T22:45:27.847Z,102239.22
2022-11-25T22:47:55.628Z,102238.41
2022-11-25T22:50:25.032Z,102251.53
2022-11-25T22:52:55.192Z,102250.69
2022-11-25T22:55:24.828Z,102259.47
2022-11-25T22:57:54.985Z,102263.88
2022-11-25T23:00:25.298Z,102263.88
2022-11-25T23:02:53.953Z,102262.13
2022-11-25T23:05:28.961Z,102262.13
2022-11-25T23:08:01.650Z,102256.88
2022-11-25T23:10:30.812Z,102261.34
2022-11-25T23:12:58.547Z,102262.34
2022-11-25T23:15:26.433Z,102261.53
2022-11-25T23:17:56.064Z,102274.53
2022-11-25T23:20:30.780Z,102271.97
2022-11-25T23:22:58.710Z,102285.19
2022-11-25T23:25:30.827Z,102273.00
2022-11-25T23:27:58.543Z,102277.44
2022-11-25T23:30:26.392Z,102280.06
2022-11-25T23:32:54.588Z,102279.28
2022-11-25T23:35:28.865Z,102282.75
2022-11-25T23:37:58.068Z,102278.47
2022-11-25T23:40:28.078Z,102282.84
2022-11-25T23:42:56.400Z,102289.03
2022-11-25T23:45:26.281Z,102281.16
2022-11-25T23:47:55.104Z,102288.22
2022-11-25T23:50:26.426Z,102293.53
2022-11-25T23:52:56.820Z,102293.59
2022-11-25T23:55:27.889Z,102290.09
2022-11-25T23:57:55.802Z,102295.41
